Time;durP1;ratioP1;P1;durP2;ratioP2;P2;SDS_P1;SDS_P2;PMS_P1;PMS_P2;Temp;Humidity;BMP_temperature;BMP_pressure;BME280_temperature;BME280_humidity;BME280_pressure;Samples;Min_cycle;Max_cycle;Signal;HPM_P1;HPM_P2
2022/02/03 00:00:03;;;;;;;22.48;19.23;;;;;;;8.96;100.00;102010.97;4860408;29;20053;-48
2022/02/03 00:07:24;;;;;;;26.65;22.30;;;;;;;8.96;100.00;102013.69;4844802;29;20527;-52
2022/02/03 00:26:31;;;;;;;26.60;22.17;;;;;;;8.99;100.00;102004.25;4843934;29;20049;-48
2022/02/03 00:29:16;;;;;;;29.48;25.27;;;;;;;8.99;100.00;102003.44;4846549;29;20054;-49
2022/02/03 00:32:01;;;;;;;27.70;23.95;;;;;;;9.00;100.00;101996.97;4848992;29;20049;-48
2022/02/03 00:34:40;;;;;;;25.27;20.58;;;;;;;8.99;100.00;101992.56;4863309;29;20037;-48
2022/02/03 00:37:15;;;;;;;26.15;22.92;;;;;;;9.00;100.00;101986.09;4864103;29;20084;-48
2022/02/03 00:48:23;;;;;;;30.80;26.63;;;;;;;9.02;100.00;101973.06;4863729;29;20038;-49
2022/02/03 00:50:53;;;;;;;31.20;26.60;;;;;;;9.01;100.00;101969.53;4863877;29;20525;-52
2022/02/03 00:53:23;;;;;;;28.42;24.33;;;;;;;9.01;100.00;101964.09;4863453;29;20049;-53
2022/02/03 00:55:54;;;;;;;31.95;26.15;;;;;;;9.01;100.00;101955.09;4847274;29;20052;-53
2022/02/03 00:58:25;;;;;;;31.23;25.25;;;;;;;9.01;100.00;101960.53;4863312;29;20493;-51
2022/02/03 01:00:57;;;;;;;30.13;25.85;;;;;;;9.00;100.00;101953.47;4863219;29;20417;-53
2022/02/03 01:03:29;;;;;;;25.70;22.15;;;;;;;9.02;100.00;101954.03;4863102;29;20041;-51
2022/02/03 01:05:59;;;;;;;28.00;23.70;;;;;;;9.04;100.00;101960.91;4863131;29;20045;-51
2022/02/03 01:08:28;;;;;;;33.08;24.77;;;;;;;9.03;100.00;101955.72;4863378;29;20505;-52
2022/02/03 01:11:08;;;;;;;28.05;24.58;;;;;;;9.00;100.00;101948.84;4846774;29;20053;-49
2022/02/03 01:13:59;;;;;;;28.55;25.35;;;;;;;9.00;100.00;101951.56;4862960;29;20532;-54
2022/02/03 01:43:34;;;;;;;33.83;29.17;;;;;;;9.00;100.00;101954.28;4862970;29;20040;-49
2022/02/03 01:46:13;;;;;;;23.92;20.77;;;;;;;9.02;100.00;101949.44;4862352;29;20051;-48
2022/02/03 01:54:05;;;;;;;32.72;28.55;;;;;;;8.99;100.00;101946.34;4862859;29;20054;-49
2022/02/03 01:56:50;;;;;;;30.35;25.08;;;;;;;9.00;100.00;101942.59;4862364;29;20061;-51
2022/02/03 01:59:24;;;;;;;31.27;27.48;;;;;;;9.01;100.00;101930.66;4862001;29;20413;-53
2022/02/03 02:01:59;;;;;;;31.42;28.02;;;;;;;9.01;100.00;101922.50;4862171;29;20041;-52
2022/02/03 02:04:55;;;;;;;25.85;21.55;;;;;;;9.00;100.00;101915.41;4862428;29;20049;-53
2022/02/03 02:07:31;;;;;;;35.00;28.48;;;;;;;9.01;100.00;101917.06;4861509;29;20064;-51
2022/02/03 02:13:14;;;;;;;30.95;27.15;;;;;;;9.01;100.00;101904.28;4862239;29;20076;-51
2022/02/03 02:38:30;;;;;;;28.95;24.20;;;;;;;8.96;100.00;101904.97;4842176;29;20132;-53
2022/02/03 02:44:16;;;;;;;28.88;23.45;;;;;;;8.94;100.00;101896.22;4843466;29;20113;-48
2022/02/03 02:46:43;;;;;;;27.00;22.25;;;;;;;8.95;100.00;101897.88;4753464;30;20100;-51
2022/02/03 02:49:24;;;;;;;26.05;18.92;;;;;;;8.98;100.00;101895.78;4768327;30;20430;-49
2022/02/03 02:52:10;;;;;;;29.20;22.85;;;;;;;8.96;100.00;101896.00;4768455;30;20440;-53
2022/02/03 02:55:01;;;;;;;23.20;19.65;;;;;;;8.95;100.00;101884.28;4768629;30;20439;-52
2022/02/03 03:34:54;;;;;;;13.55;9.90;;;;;;;8.96;100.00;101809.84;4842317;29;20054;-51
2022/02/03 03:37:45;;;;;;;17.52;9.63;;;;;;;9.00;100.00;101795.81;4842193;29;20050;-47
2022/02/03 03:40:14;;;;;;;15.55;9.10;;;;;;;8.96;100.00;101798.13;4829102;29;20505;-50
2022/02/03 03:43:08;;;;;;;14.25;8.65;;;;;;;8.93;100.00;101806.78;4842428;29;20050;-50
2022/02/03 03:45:38;;;;;;;10.68;6.97;;;;;;;8.92;100.00;101800.50;4767836;30;20051;-49
2022/02/03 03:48:09;;;;;;;12.93;7.78;;;;;;;8.93;100.00;101780.41;4752761;30;20071;-51
2022/02/03 03:50:39;;;;;;;13.73;7.35;;;;;;;8.93;100.00;101780.41;4767321;30;20056;-50
2022/02/03 03:53:17;;;;;;;12.07;7.50;;;;;;;8.92;100.00;101784.19;4749991;30;20052;-49
2022/02/03 03:56:19;;;;;;;12.32;7.32;;;;;;;8.96;100.00;101789.97;4736795;30;20114;-48
2022/02/03 04:34:00;;;;;;;11.50;6.20;;;;;;;8.88;100.00;101761.25;4866349;29;20061;-52
2022/02/03 04:37:34;;;;;;;11.60;6.30;;;;;;;8.83;100.00;101771.19;4837224;29;20489;-47
2022/02/03 04:40:02;;;;;;;8.50;5.28;;;;;;;8.80;100.00;101767.00;4833715;29;20068;-50
2022/02/03 04:50:44;;;;;;;9.65;4.68;;;;;;;8.82;100.00;101766.78;4865838;29;20069;-48
2022/02/03 05:05:02;;;;;;;6.93;3.17;;;;;;;8.75;98.31;101747.88;4865752;29;20094;-48
2022/02/03 05:11:24;;;;;;;8.73;3.00;;;;;;;8.73;98.37;101745.41;4866145;29;20049;-48
2022/02/03 05:20:53;;;;;;;7.57;2.97;;;;;;;8.78;98.30;101733.00;4862830;29;20541;-49
2022/02/03 05:24:37;;;;;;;8.23;3.20;;;;;;;8.76;97.95;101735.13;4862440;29;20048;-52
2022/02/03 05:34:02;;;;;;;6.72;2.65;;;;;;;8.74;96.64;101710.91;4863150;29;20041;-51
2022/02/03 05:45:01;;;;;;;10.30;2.85;;;;;;;8.83;97.44;101703.25;4862192;29;20121;-50
2022/02/03 06:01:28;;;;;;;8.13;2.92;;;;;;;8.92;99.09;101696.38;4844054;29;20061;-49
2022/02/03 06:17:49;;;;;;;8.50;3.05;;;;;;;8.82;99.05;101667.06;4804525;29;20055;-52
2022/02/03 06:23:07;;;;;;;5.57;2.90;;;;;;;8.94;100.00;101656.22;4805035;29;20042;-49
2022/02/03 06:28:11;;;;;;;;;;;;;;;9.09;100.00;101644.84;4805403;29;20564;-47
2022/02/03 06:30:39;;;;;;;6.38;2.80;;;;;;;9.02;100.00;101646.88;4804235;29;19932;-50
2022/02/03 06:33:07;;;;;;;5.40;2.85;;;;;;;9.15;100.00;101641.19;4804751;29;20054;-49
2022/02/03 06:35:35;;;;;;;8.80;4.25;;;;;;;9.08;100.00;101637.78;4804144;29;20047;-49
2022/02/03 06:38:02;;;;;;;7.82;4.00;;;;;;;8.91;98.54;101640.38;4804377;29;20059;-48
2022/02/03 06:40:30;;;;;;;8.35;3.97;;;;;;;8.84;97.69;101645.09;4804251;29;20151;-47
2022/02/03 06:42:58;;;;;;;7.80;4.45;;;;;;;8.83;97.99;101638.03;4795884;29;20103;-48
2022/02/03 06:45:48;;;;;;;9.65;3.80;;;;;;;9.05;100.00;101630.09;4861321;29;20046;-48
2022/02/03 06:48:18;;;;;;;7.78;3.80;;;;;;;9.05;99.27;101627.38;4861611;29;20046;-48
2022/02/03 06:50:53;;;;;;;9.63;4.63;;;;;;;8.94;98.36;101624.41;4861256;29;20501;-52
2022/02/03 06:53:24;;;;;;;9.07;5.05;;;;;;;8.87;97.30;101618.28;4846116;29;20056;-53
2022/02/03 06:56:08;;;;;;;9.07;4.40;;;;;;;8.88;98.07;101627.28;4861327;29;20041;-51
2022/02/03 06:58:50;;;;;;;9.65;6.05;;;;;;;8.82;95.44;101626.31;4860634;29;20412;-45
2022/02/03 07:01:24;;;;;;;5.63;3.65;;;;;;;8.95;100.00;101620.66;4860910;29;20049;-48
2022/02/03 07:03:56;;;;;;;11.20;5.93;;;;;;;8.90;95.51;101611.56;4860802;29;20033;-48
2022/02/03 07:06:24;;;;;;;5.57;3.08;;;;;;;8.86;98.57;101611.19;4860720;29;20049;-49
2022/02/03 07:08:53;;;;;;;12.57;6.05;;;;;;;8.92;97.09;101609.41;4860854;29;20056;-50
2022/02/03 07:11:23;;;;;;;4.97;3.08;;;;;;;9.23;100.00;101597.31;4861195;29;20049;-49
2022/02/03 07:13:51;;;;;;;6.97;3.67;;;;;;;9.43;100.00;101604.22;4860986;29;20492;-51
2022/02/03 07:16:18;;;;;;;10.80;6.03;;;;;;;9.34;93.99;101611.97;4860194;29;20061;-50
2022/02/03 07:18:46;;;;;;;12.10;5.90;;;;;;;8.99;91.82;101612.00;4207728;29;10001779;-56
2022/02/03 07:21:47;;;;;;;10.07;5.57;;;;;;;8.75;90.79;101622.88;4764393;30;20285;-48
2022/02/03 07:24:15;;;;;;;11.45;5.80;;;;;;;8.70;91.45;101620.06;4764548;30;20060;-50
2022/02/03 07:26:43;;;;;;;9.32;5.32;;;;;;;8.61;91.04;101616.03;4763881;30;20056;-50
2022/02/03 07:29:11;;;;;;;7.80;2.92;;;;;;;8.88;98.64;101610.97;4763976;30;20044;-50
2022/02/03 07:31:38;;;;;;;7.22;3.05;;;;;;;8.99;97.62;101590.25;4764242;30;20060;-50
2022/02/03 07:34:11;;;;;;;8.75;4.88;;;;;;;9.05;96.45;101586.59;4763999;30;20051;-51
2022/02/03 07:36:39;;;;;;;11.52;5.10;;;;;;;9.16;96.66;101583.88;4763105;30;20208;-53
2022/02/03 07:39:07;;;;;;;6.85;2.47;;;;;;;9.37;100.00;101568.78;4799022;29;20061;-49
2022/02/03 07:41:34;;;;;;;7.40;3.40;;;;;;;9.32;98.53;101570.56;4857264;29;20072;-49
2022/02/03 07:44:02;;;;;;;10.18;5.40;;;;;;;9.16;96.46;101561.25;4857384;29;20052;-56
2022/02/03 07:46:31;;;;;;;9.07;5.22;;;;;;;9.12;93.17;101566.38;4858014;29;20049;-49
2022/02/03 07:48:59;;;;;;;10.05;5.30;;;;;;;9.07;95.12;101555.41;4841936;29;20527;-51
2022/02/03 07:51:27;;;;;;;5.75;3.40;;;;;;;9.29;100.00;101560.19;4857170;29;20056;-50
2022/02/03 07:53:54;;;;;;;11.07;6.72;;;;;;;9.23;94.46;101556.53;4857006;29;20188;-52
2022/02/03 07:56:22;;;;;;;6.95;4.22;;;;;;;9.14;95.87;101569.69;4857608;29;20045;-52
2022/02/03 07:58:49;;;;;;;9.02;4.45;;;;;;;9.16;95.10;101555.84;4859118;29;20396;-53
2022/02/03 08:01:17;;;;;;;9.43;5.07;;;;;;;8.98;93.72;101562.25;4860304;29;20049;-51
2022/02/03 08:03:45;;;;;;;8.85;5.03;;;;;;;9.15;98.11;101565.06;4843649;29;20055;-54
2022/02/03 08:06:22;;;;;;;11.20;6.07;;;;;;;9.24;97.47;101568.25;4860225;29;20068;-47
2022/02/03 08:08:55;;;;;;;7.80;3.03;;;;;;;9.17;94.20;101568.38;4860417;29;20057;-53
2022/02/03 08:11:28;;;;;;;9.73;4.57;;;;;;;9.17;97.65;101574.63;4860853;29;20038;-51
2022/02/03 08:14:11;;;;;;;13.57;6.68;;;;;;;8.95;91.63;101571.72;4859876;29;20045;-53
2022/02/03 08:16:48;;;;;;;8.98;4.97;;;;;;;8.82;91.53;101574.69;4860173;29;20488;-49
2022/02/03 08:19:22;;;;;;;13.35;6.53;;;;;;;8.71;89.64;101575.53;4860405;29;20046;-48
2022/02/03 08:22:00;;;;;;;10.48;4.07;;;;;;;9.29;98.88;101571.06;4859797;29;20050;-50
2022/02/03 08:24:42;;;;;;;9.05;4.18;;;;;;;9.19;94.60;101568.97;4859897;29;20285;-48
2022/02/03 08:32:34;;;;;;;10.30;5.03;;;;;;;9.62;93.30;101561.34;4824231;29;20425;-48
2022/02/03 08:37:42;;;;;;;20.30;5.93;;;;;;;9.17;95.46;101554.78;4860092;29;20045;-56
2022/02/03 08:40:15;;;;;;;16.85;6.00;;;;;;;9.25;95.60;101548.13;4859940;29;20508;-53
2022/02/03 08:42:43;;;;;;;13.07;5.25;;;;;;;9.18;92.04;101559.97;4859798;29;20421;-51
2022/02/03 08:45:11;;;;;;;17.08;6.68;;;;;;;9.26;94.02;101545.19;4859675;29;20475;-48
2022/02/03 08:47:39;;;;;;;20.42;6.90;;;;;;;9.32;95.74;101555.06;4860006;29;20041;-48
2022/02/03 08:50:08;;;;;;;22.85;6.80;;;;;;;9.29;97.14;101539.25;4862738;29;20057;-51
2022/02/03 08:53:02;;;;;;;14.70;5.78;;;;;;;9.33;95.15;101532.28;4863047;29;20052;-48
2022/02/03 09:50:00;;;;;;;13.63;4.80;;;;;;;9.01;85.63;101518.28;4805453;29;20094;-53
2022/02/03 09:58:28;;;;;;;13.65;5.25;;;;;;;8.85;86.65;101527.19;4792209;29;20059;-52
2022/02/03 10:01:11;;;;;;;14.43;4.85;;;;;;;8.93;90.43;101530.38;4786204;29;20500;-55
2022/02/03 10:03:52;;;;;;;15.38;5.47;;;;;;;8.98;90.80;101526.94;4787179;30;20058;-52
2022/02/03 10:06:24;;;;;;;16.33;5.43;;;;;;;8.77;84.78;101530.28;4787053;30;20078;-51
2022/02/03 10:08:53;;;;;;;13.15;5.50;;;;;;;8.63;84.53;101532.41;4787719;29;20054;-50
2022/02/03 10:11:28;;;;;;;14.13;4.78;;;;;;;8.57;87.37;101525.22;4786765;30;20051;-51
2022/02/03 10:14:04;;;;;;;14.40;5.40;;;;;;;8.60;84.72;101513.88;4786916;30;20430;-52
2022/02/03 10:16:34;;;;;;;14.55;5.00;;;;;;;8.54;84.22;101512.94;4799421;29;20047;-51
2022/02/03 10:19:13;;;;;;;13.60;5.10;;;;;;;8.59;84.58;101517.66;4804322;29;20154;-51
2022/02/03 10:21:43;;;;;;;10.73;5.00;;;;;;;8.58;84.36;101511.38;4804180;29;20578;-56
2022/02/03 10:24:15;;;;;;;12.73;4.85;;;;;;;8.62;84.72;101517.19;4814675;29;20527;-56
2022/02/03 10:26:51;;;;;;;14.63;5.00;;;;;;;8.71;87.90;101513.03;4826537;29;20458;-49
2022/02/03 10:29:30;;;;;;;15.60;5.15;;;;;;;8.78;86.92;101511.03;4854887;29;20061;-49
2022/02/03 10:31:58;;;;;;;16.17;5.25;;;;;;;9.01;89.40;101506.59;4861854;29;20117;-50
2022/02/03 10:34:28;;;;;;;12.52;4.68;;;;;;;8.93;87.09;101503.19;4861320;29;20045;-53
2022/02/03 10:37:14;;;;;;;15.23;5.35;;;;;;;9.17;92.65;101492.25;4860639;29;20049;-50
2022/02/03 10:40:08;;;;;;;11.93;5.27;;;;;;;9.11;89.49;101488.59;4860918;29;20048;-51
2022/02/03 10:45:24;;;;;;;16.05;5.63;;;;;;;9.07;85.72;101475.75;4861445;29;20060;-50
2022/02/03 11:06:22;;;;;;;13.98;5.45;;;;;;;8.57;82.72;101470.91;4860729;29;20186;-52
2022/02/03 11:11:35;;;;;;;20.40;7.95;;;;;;;8.70;84.48;101470.63;4860211;29;20049;-51
2022/02/03 11:14:04;;;;;;;16.58;6.72;;;;;;;8.76;84.91;101464.25;4861119;29;20050;-53
2022/02/03 11:16:37;;;;;;;19.58;7.60;;;;;;;8.79;84.54;101461.03;4861213;29;20065;-50
2022/02/03 11:19:09;;;;;;;23.30;6.95;;;;;;;8.76;83.10;101450.66;4861198;29;20086;-50
2022/02/03 11:21:38;;;;;;;19.15;8.10;;;;;;;8.74;82.91;101450.06;4860039;29;20050;-51
2022/02/03 11:24:18;;;;;;;23.85;8.07;;;;;;;8.81;85.18;101449.94;4846742;29;20144;-53
2022/02/03 11:32:10;;;;;;;52.90;20.05;;;;;;;9.38;98.23;101426.28;4858837;29;20104;-52
2022/02/03 11:40:23;;;;;;;14.10;6.15;;;;;;;9.06;85.04;101414.28;4860264;29;20065;-52
2022/02/03 11:45:42;;;;;;;20.08;7.38;;;;;;;9.49;91.93;101407.44;4857324;29;19924;-49
2022/02/03 11:56:53;;;;;;;23.80;10.27;;;;;;;9.18;92.17;101402.25;4857392;29;20046;-50
2022/02/03 12:14:18;;;;;;;31.70;12.73;;;;;;;9.33;93.18;101365.53;4771852;30;20086;-51
2022/02/03 12:19:30;;;;;;;15.18;5.20;;;;;;;9.18;83.16;101357.94;4771869;30;20077;-53
2022/02/03 12:22:12;;;;;;;18.00;6.22;;;;;;;9.11;84.25;101352.66;4767474;30;20048;-53
2022/02/03 12:25:20;;;;;;;17.67;5.00;;;;;;;8.91;82.58;101347.69;4768540;30;20060;-53
2022/02/03 12:28:03;;;;;;;11.23;4.78;;;;;;;8.86;82.37;101352.22;4770416;30;20047;-52
2022/02/03 12:39:12;;;;;;;13.57;4.30;;;;;;;8.94;84.90;101336.31;4770633;30;20146;-49
2022/02/03 12:41:59;;;;;;;13.77;5.47;;;;;;;8.98;86.16;101341.28;4770580;30;20056;-55
2022/02/03 12:44:28;;;;;;;17.85;7.30;;;;;;;9.00;86.33;101331.00;4781034;29;20050;-56
2022/02/03 12:47:04;;;;;;;11.63;5.32;;;;;;;8.97;84.82;101340.44;4828659;29;20409;-56
2022/02/03 12:49:38;;;;;;;13.20;5.00;;;;;;;8.94;85.30;101330.88;4845130;29;20048;-53
2022/02/03 12:52:26;;;;;;;18.10;6.05;;;;;;;9.21;88.98;101338.41;4862089;29;20052;-55
2022/02/03 12:54:54;;;;;;;15.85;5.97;;;;;;;9.05;86.97;101331.09;4863246;29;20496;-53
2022/02/03 12:57:34;;;;;;;20.63;8.07;;;;;;;9.08;92.71;101331.41;4863314;29;20041;-56
2022/02/03 13:00:15;;;;;;;11.90;4.10;;;;;;;9.02;86.58;101328.84;4863332;29;20056;-52
2022/02/03 13:02:54;;;;;;;15.05;5.20;;;;;;;8.87;85.37;101329.41;4862938;29;20527;-52
2022/02/03 13:05:23;;;;;;;20.00;6.63;;;;;;;8.94;86.80;101328.16;4845762;29;20065;-53
2022/02/03 13:07:56;;;;;;;12.38;4.60;;;;;;;8.82;85.20;101319.25;4862831;29;20744;-53
2022/02/03 13:10:26;;;;;;;13.13;4.72;;;;;;;8.70;85.10;101321.22;4863168;29;20054;-51
2022/02/03 13:13:02;;;;;;;15.57;5.03;;;;;;;8.63;85.57;101324.06;4863020;29;20045;-51
2022/02/03 13:15:34;;;;;;;13.98;5.22;;;;;;;8.71;85.96;101314.72;4861735;29;20065;-52
2022/02/03 13:18:06;;;;;;;15.10;5.13;;;;;;;8.81;87.26;101314.91;4847042;29;20129;-53
2022/02/03 13:20:42;;;;;;;14.82;6.20;;;;;;;8.81;87.08;101311.38;4862794;29;20045;-54
2022/02/03 13:23:17;;;;;;;12.85;5.10;;;;;;;8.78;85.96;101309.13;4862673;29;20073;-53
2022/02/03 13:26:01;;;;;;;13.98;5.32;;;;;;;8.70;87.24;101313.06;4862504;29;20056;-53
2022/02/03 13:28:46;;;;;;;14.65;5.38;;;;;;;8.66;88.20;101310.03;4847484;29;20164;-54
2022/02/03 13:31:45;;;;;;;13.95;5.50;;;;;;;8.71;90.10;101309.28;4862321;29;20125;-54
2022/02/03 13:34:14;;;;;;;11.13;5.00;;;;;;;8.68;90.34;101307.03;4861680;29;20449;-55
2022/02/03 13:36:51;;;;;;;14.02;5.28;;;;;;;8.70;90.94;101310.34;4861709;29;20038;-57
2022/02/03 13:39:26;;;;;;;;;;;;;;;8.72;91.33;101311.75;4866299;29;20053;-52
2022/02/03 13:42:12;;;;;;;12.13;5.63;;;;;;;8.76;91.59;101309.38;4865072;29;20345;-53
2022/02/03 13:44:40;;;;;;;12.90;5.40;;;;;;;8.76;91.21;101312.09;4863254;29;20492;-54
2022/02/03 13:47:24;;;;;;;14.98;6.68;;;;;;;8.93;93.68;101309.41;4862456;29;20117;-51
2022/02/03 13:50:07;;;;;;;13.43;4.93;;;;;;;8.86;91.84;101301.41;4862560;29;20049;-53
2022/02/03 13:52:52;;;;;;;13.60;5.88;;;;;;;8.89;92.96;101300.09;4861307;29;20106;-52
2022/02/03 14:11:09;;;;;;;15.13;5.50;;;;;;;8.60;92.63;101280.28;4861200;29;20057;-51
2022/02/03 14:21:06;;;;;;;10.50;4.93;;;;;;;8.75;92.39;101261.53;4861171;29;20084;-49
2022/02/03 14:29:20;;;;;;;14.00;5.55;;;;;;;8.84;93.69;101273.66;4861468;29;20046;-53
2022/02/03 14:31:56;;;;;;;13.90;5.00;;;;;;;8.86;93.25;101267.97;4861744;29;20093;-53
2022/02/03 14:34:29;;;;;;;12.07;4.68;;;;;;;8.77;92.18;101272.97;4862228;29;20048;-51
2022/02/03 14:37:28;;;;;;;15.43;5.70;;;;;;;8.70;91.30;101269.59;4862241;29;20045;-51
2022/02/03 14:42:24;;;;;;;10.80;4.90;;;;;;;8.71;93.64;101271.25;4861176;29;20053;-51
2022/02/03 14:44:52;;;;;;;12.63;5.57;;;;;;;8.69;93.78;101257.91;4861692;29;20054;-49
2022/02/03 14:47:22;;;;;;;12.20;5.10;;;;;;;8.64;94.62;101259.72;4861208;29;20057;-49
2022/02/03 14:49:50;;;;;;;15.13;5.85;;;;;;;8.85;98.84;101240.00;4861337;29;20064;-50
2022/02/03 14:52:31;;;;;;;12.07;5.35;;;;;;;8.86;97.76;101236.19;4860417;29;20412;-48
2022/02/03 14:58:03;;;;;;;12.10;5.10;;;;;;;9.17;100.00;101220.38;4861067;29;20065;-52
2022/02/03 15:00:32;;;;;;;13.20;5.40;;;;;;;9.04;99.46;101226.13;4861225;29;20476;-49
2022/02/03 15:03:00;;;;;;;15.68;5.50;;;;;;;8.79;96.50;101229.28;4860571;29;20563;-49
2022/02/03 15:05:38;;;;;;;15.23;5.38;;;;;;;8.65;96.53;101229.56;4861286;29;20045;-51
2022/02/03 15:08:15;;;;;;;13.95;4.95;;;;;;;8.57;96.87;101226.47;4861084;29;20045;-52
2022/02/03 15:10:49;;;;;;;13.13;5.07;;;;;;;8.51;97.16;101226.38;4861261;29;20141;-51
2022/02/03 15:13:32;;;;;;;16.58;5.30;;;;;;;8.60;96.96;101225.97;4860127;29;20400;-51
2022/02/03 15:16:01;;;;;;;10.43;4.43;;;;;;;8.79;100.00;101221.13;4860434;29;20084;-50
2022/02/03 15:18:29;;;;;;;11.10;4.57;;;;;;;8.69;97.80;101213.63;4861008;29;20468;-52
2022/02/03 15:20:58;;;;;;;11.23;4.00;;;;;;;8.74;100.00;101216.44;4860357;29;20045;-52
2022/02/03 15:23:27;;;;;;;17.85;5.75;;;;;;;8.90;100.00;101210.19;4842487;29;20402;-51
2022/02/03 15:25:56;;;;;;;12.68;4.85;;;;;;;9.00;100.00;101208.69;4842656;29;20064;-50
2022/02/03 15:28:23;;;;;;;12.40;4.70;;;;;;;9.07;99.84;101209.34;4859127;29;20053;-50
2022/02/03 15:30:53;;;;;;;12.38;5.05;;;;;;;9.05;100.00;101206.06;4860823;29;20049;-50
2022/02/03 15:33:27;;;;;;;10.52;4.43;;;;;;;8.89;99.32;101203.06;4859802;29;20065;-49
2022/02/03 15:36:00;;;;;;;10.50;4.40;;;;;;;8.86;97.81;101200.88;4859959;29;20052;-52
2022/02/03 15:38:32;;;;;;;12.98;4.80;;;;;;;8.80;97.92;101201.03;4860854;29;20062;-51
2022/02/03 15:41:04;;;;;;;12.02;4.38;;;;;;;8.74;99.15;101211.00;4860606;29;20107;-54
2022/02/03 15:43:39;;;;;;;10.05;4.70;;;;;;;8.69;98.45;101205.47;4859869;29;20497;-51
2022/02/03 15:46:08;;;;;;;9.32;4.47;;;;;;;8.67;100.00;101199.47;4860745;29;20057;-52
2022/02/03 15:48:42;;;;;;;13.57;4.75;;;;;;;8.70;100.00;101188.09;4859788;29;20061;-49
2022/02/03 15:51:22;;;;;;;10.38;4.55;;;;;;;8.80;100.00;101192.88;4860556;29;20053;-52
2022/02/03 16:02:11;;;;;;;11.35;4.70;;;;;;;8.65;99.58;101201.59;4186311;29;10000647;-51
2022/02/03 16:18:17;;;;;;;13.63;5.80;;;;;;;8.47;99.04;101195.31;4856897;29;20041;-49
2022/02/03 16:20:53;;;;;;;8.80;4.80;;;;;;;8.50;98.99;101194.00;4856466;29;20497;-50
2022/02/03 16:52:59;;;;;;;12.60;5.78;;;;;;;8.47;97.70;101195.31;4850049;29;19928;-48
2022/02/03 16:55:33;;;;;;;13.02;6.50;;;;;;;8.45;98.76;101202.88;4848103;29;20038;-47
2022/02/03 16:58:03;;;;;;;9.65;5.25;;;;;;;8.40;98.05;101205.53;4856003;29;20471;-48
2022/02/03 17:00:31;;;;;;;15.55;6.65;;;;;;;8.37;97.82;101200.56;4849699;29;20053;-50
2022/02/03 17:03:00;;;;;;;8.57;4.38;;;;;;;8.41;99.22;101201.72;4856366;29;20102;-45
2022/02/03 17:05:28;;;;;;;12.73;6.18;;;;;;;8.37;97.71;101205.13;4839779;29;20128;-46
2022/02/03 17:07:56;;;;;;;12.73;6.93;;;;;;;8.30;96.95;101208.03;4856691;29;20719;-46
2022/02/03 17:10:24;;;;;;;11.70;6.05;;;;;;;8.32;97.36;101208.59;4858555;29;20049;-48
2022/02/03 17:12:51;;;;;;;12.38;6.43;;;;;;;8.30;97.42;101194.44;4859562;29;20068;-47
2022/02/03 17:15:20;;;;;;;10.88;5.15;;;;;;;8.38;98.05;101202.19;4859976;29;20068;-49
2022/02/03 17:17:52;;;;;;;12.05;5.90;;;;;;;8.39;98.08;101201.09;4859836;29;20575;-50
2022/02/03 17:20:27;;;;;;;12.07;5.47;;;;;;;8.39;97.34;101209.25;4859117;29;20057;-49
2022/02/03 17:22:56;;;;;;;12.18;6.70;;;;;;;8.40;97.83;101205.53;4859545;29;20052;-55
2022/02/03 17:28:05;;;;;;;14.43;6.55;;;;;;;8.30;97.56;101210.75;4842984;29;20133;-47
2022/02/03 17:30:39;;;;;;;15.05;6.85;;;;;;;8.29;98.31;101214.50;4859602;29;20077;-51
2022/02/03 18:11:33;;;;;;;16.90;8.55;;;;;;;8.19;100.00;101219.75;4765810;30;20416;-49
2022/02/03 18:29:07;;;;;;;12.68;7.90;;;;;;;8.23;100.00;101215.50;4765126;30;20063;-49
2022/02/03 18:52:24;;;;;;;15.95;9.98;;;;;;;8.05;100.00;101202.91;4857821;29;20102;-51
2022/02/03 20:03:40;;;;;;;18.83;15.30;;;;;;;8.14;100.00;101184.38;4857529;29;20042;-50
2022/02/03 20:09:15;;;;;;;18.30;14.43;;;;;;;8.08;100.00;101187.00;4857113;29;20042;-49
2022/02/03 20:11:42;;;;;;;15.20;12.38;;;;;;;8.16;100.00;101188.50;4857338;29;20049;-48
2022/02/03 20:14:13;;;;;;;18.30;14.48;;;;;;;8.20;100.00;101192.38;4857164;29;20053;-49
2022/02/03 20:16:42;;;;;;;17.75;14.23;;;;;;;8.19;100.00;101179.03;4857137;29;20064;-52
2022/02/03 20:19:10;;;;;;;12.85;9.90;;;;;;;8.26;100.00;101174.28;4856495;29;20050;-51
2022/02/03 20:21:40;;;;;;;15.32;11.98;;;;;;;8.22;100.00;101175.81;4857310;29;20055;-50
2022/02/03 20:24:08;;;;;;;15.02;11.70;;;;;;;8.24;100.00;101179.13;4856987;29;20056;-51
2022/02/03 20:26:37;;;;;;;14.27;11.50;;;;;;;8.30;100.00;101183.59;4857320;29;20076;-45
2022/02/03 20:29:05;;;;;;;18.05;13.88;;;;;;;8.26;100.00;101179.72;4840443;29;20049;-47
2022/02/03 20:31:33;;;;;;;18.30;14.80;;;;;;;8.23;100.00;101188.34;4856437;29;20433;-49
2022/02/03 20:34:01;;;;;;;19.30;15.43;;;;;;;8.21;100.00;101190.47;4856563;29;20048;-47
2022/02/03 20:36:28;;;;;;;19.77;15.07;;;;;;;8.20;100.00;101188.81;4855742;29;20050;-48
2022/02/03 20:38:56;;;;;;;18.70;14.02;;;;;;;8.21;100.00;101190.47;4856593;29;20102;-53
2022/02/03 20:41:24;;;;;;;15.70;12.60;;;;;;;8.25;100.00;101187.03;4857255;29;20069;-50
2022/02/03 20:43:52;;;;;;;9.68;6.35;;;;;;;8.35;100.00;101178.25;4857074;29;20065;-53
2022/02/03 20:46:19;;;;;;;18.55;14.65;;;;;;;8.30;100.00;101186.31;4860645;29;20519;-51
2022/02/03 20:48:48;;;;;;;17.45;14.18;;;;;;;8.25;100.00;101183.47;4859971;29;20049;-51
2022/02/03 20:51:18;;;;;;;17.80;14.27;;;;;;;8.29;100.00;101176.50;4860165;29;20049;-53
2022/02/03 20:53:47;;;;;;;18.65;15.82;;;;;;;8.22;100.00;101173.94;4860229;29;20053;-50
2022/02/03 20:56:19;;;;;;;19.83;15.07;;;;;;;8.16;100.00;101177.63;4860479;29;20042;-51
2022/02/03 20:58:48;;;;;;;15.93;12.80;;;;;;;8.15;100.00;101167.81;4860349;29;20049;-48
2022/02/03 21:01:21;;;;;;;16.50;14.10;;;;;;;8.15;100.00;101180.56;4860231;29;20064;-51
2022/02/03 21:03:50;;;;;;;17.90;13.63;;;;;;;8.16;100.00;101182.25;4859908;29;20516;-49
2022/02/03 21:06:18;;;;;;;14.15;11.55;;;;;;;8.18;100.00;101182.78;4860274;29;20076;-53
2022/02/03 21:08:49;;;;;;;21.27;14.27;;;;;;;8.22;100.00;101175.81;4860014;29;20061;-49
2022/02/03 21:11:17;;;;;;;15.98;11.98;;;;;;;8.30;100.00;101183.59;4860443;29;20080;-52
2022/02/03 21:13:45;;;;;;;17.30;14.35;;;;;;;8.28;100.00;101180.28;4859899;29;20591;-52
2022/02/03 21:16:14;;;;;;;16.17;12.27;;;;;;;8.29;100.00;101176.50;4860114;29;20497;-50
2022/02/03 21:18:44;;;;;;;17.15;12.55;;;;;;;8.30;100.00;101170.03;4859972;29;20128;-49
2022/02/03 21:21:12;;;;;;;14.82;11.00;;;;;;;8.25;100.00;101173.47;4841875;29;20084;-52
2022/02/03 21:23:39;;;;;;;17.33;13.82;;;;;;;8.27;100.00;101159.63;4842137;29;20070;-50
2022/02/03 21:26:15;;;;;;;15.93;13.57;;;;;;;8.22;100.00;101157.63;4857855;29;20049;-53
2022/02/03 21:28:47;;;;;;;19.25;14.35;;;;;;;8.20;100.00;101164.38;4859987;29;20058;-47
2022/02/03 21:31:15;;;;;;;14.65;11.45;;;;;;;8.29;100.00;101165.63;4860015;29;20052;-47
2022/02/03 21:33:53;;;;;;;17.85;14.05;;;;;;;8.30;100.00;101161.88;4860033;29;20060;-48
2022/02/03 21:36:22;;;;;;;17.23;13.63;;;;;;;8.24;100.00;101165.56;4859666;29;20041;-47
2022/02/03 21:38:50;;;;;;;19.20;14.00;;;;;;;8.26;100.00;101163.41;4859910;29;20058;-47
2022/02/03 21:41:18;;;;;;;18.58;15.75;;;;;;;8.21;100.00;101163.34;4858965;29;20049;-46
2022/02/03 21:43:48;;;;;;;15.73;13.80;;;;;;;8.20;100.00;101173.38;4859206;29;20050;-49
2022/02/03 21:46:17;;;;;;;16.77;14.35;;;;;;;8.19;100.00;101177.13;4858051;29;20549;-51
2022/02/03 21:48:49;;;;;;;17.75;14.95;;;;;;;8.22;100.00;101175.81;4859921;29;20053;-49
2022/02/03 21:51:21;;;;;;;18.52;12.68;;;;;;;8.22;100.00;101173.13;4859415;29;20557;-50
2022/02/03 21:53:50;;;;;;;18.80;15.95;;;;;;;8.20;100.00;101173.38;4859878;29;20053;-52
2022/02/03 21:56:19;;;;;;;18.55;14.70;;;;;;;8.23;100.00;101172.06;4858474;29;20057;-52
2022/02/03 21:58:47;;;;;;;15.77;13.25;;;;;;;8.21;100.00;101166.03;4859598;29;20049;-51
2022/02/03 22:01:15;;;;;;;33.47;27.35;;;;;;;8.21;100.00;101153.28;4859224;29;20045;-51
2022/02/03 22:03:44;;;;;;;19.13;16.10;;;;;;;8.23;100.00;101162.03;4859396;29;20431;-49
2022/02/03 22:06:11;;;;;;;18.35;14.95;;;;;;;8.22;100.00;101164.97;4849016;29;20057;-46
2022/02/03 22:08:39;;;;;;;17.45;13.55;;;;;;;8.20;100.00;101167.94;4849051;29;20037;-48